Time;durP1;ratioP1;P1;durP2;ratioP2;P2;SDS_P1;SDS_P2;PMS_P1;PMS_P2;Temp;Humidity;BMP_temperature;BMP_pressure;BME280_temperature;BME280_humidity;BME280_pressure;Samples;Min_cycle;Max_cycle;Signal;HPM_P1;HPM_P2
2022/03/22 00:00:35;;;;;;;39.92;22.75;;;;;;;10.02;89.67;102728.44;5091436;28;20050;-73
2022/03/22 00:03:05;;;;;;;44.40;24.33;;;;;;;10.00;88.95;102733.50;5089961;28;20123;-73
2022/03/22 00:05:32;;;;;;;45.42;23.35;;;;;;;9.98;89.81;102735.81;5094353;28;20405;-75
2022/03/22 00:08:01;;;;;;;43.90;23.33;;;;;;;9.92;90.90;102731.66;5098966;28;20130;-73
2022/03/22 00:10:28;;;;;;;43.88;22.95;;;;;;;9.87;90.55;102723.59;5098703;28;20105;-72
2022/03/22 00:13:13;;;;;;;44.17;24.25;;;;;;;9.85;91.12;102730.59;5085857;28;20116;-75
2022/03/22 00:15:39;;;;;;;47.92;22.73;;;;;;;9.85;89.82;102734.19;5086741;28;20105;-72
2022/03/22 00:18:26;;;;;;;44.45;23.17;;;;;;;9.86;90.44;102726.69;5090632;28;20052;-72
2022/03/22 00:20:53;;;;;;;44.40;22.73;;;;;;;9.86;89.57;102738.56;5089603;28;20059;-73
2022/03/22 00:23:21;;;;;;;42.78;23.52;;;;;;;9.84;88.60;102729.81;5088521;28;20462;-73
2022/03/22 00:25:48;;;;;;;47.47;24.42;;;;;;;9.81;89.70;102736.03;5086602;28;20431;-74
2022/03/22 00:28:14;;;;;;;43.35;23.20;;;;;;;9.80;90.04;102739.94;5088905;28;20108;-74
2022/03/22 00:30:41;;;;;;;43.65;24.13;;;;;;;9.76;91.27;102732.69;5089071;28;20048;-73
2022/03/22 00:33:09;;;;;;;44.63;24.20;;;;;;;9.73;91.16;102745.25;5080869;28;20052;-75
2022/03/22 00:35:37;;;;;;;45.15;24.23;;;;;;;9.67;92.41;102748.56;5090743;28;20556;-73
2022/03/22 00:38:06;;;;;;;42.28;23.58;;;;;;;9.60;93.33;102740.84;5092957;28;20055;-73
2022/03/22 00:40:32;;;;;;;39.95;21.80;;;;;;;9.59;92.24;102747.50;5091142;28;20071;-73
2022/03/22 00:42:59;;;;;;;42.08;22.65;;;;;;;9.57;91.47;102747.03;5087252;28;20067;-71
2022/03/22 00:45:28;;;;;;;39.47;22.10;;;;;;;9.53;91.60;102734.25;5090668;28;20052;-74
2022/03/22 00:47:56;;;;;;;44.45;23.40;;;;;;;9.51;91.25;102739.28;5086992;28;20516;-72
2022/03/22 00:50:27;;;;;;;40.78;21.83;;;;;;;9.51;91.60;102733.75;5082677;28;20133;-74
2022/03/22 00:52:56;;;;;;;41.25;22.38;;;;;;;9.49;91.40;102742.41;5089631;28;20592;-73
2022/03/22 00:55:24;;;;;;;45.75;23.25;;;;;;;9.41;91.51;102740.53;5087869;28;20876;-72
2022/03/22 00:57:52;;;;;;;44.17;23.80;;;;;;;9.38;92.25;102738.44;5090437;28;20131;-73
2022/03/22 01:00:20;;;;;;;42.67;22.67;;;;;;;9.31;91.40;102735.44;5088585;28;20479;-75
2022/03/22 01:02:49;;;;;;;38.20;21.08;;;;;;;9.25;91.33;102734.03;5096902;28;20149;-73
2022/03/22 01:05:19;;;;;;;42.75;21.98;;;;;;;9.25;91.74;102739.56;5096941;28;20052;-73
2022/03/22 01:07:52;;;;;;;44.97;21.35;;;;;;;9.23;91.91;102730.81;5088885;28;20055;-75
2022/03/22 01:10:20;;;;;;;40.75;20.60;;;;;;;9.21;90.89;102730.34;5089561;28;20926;-75
2022/03/22 01:12:48;;;;;;;42.83;22.48;;;;;;;9.19;92.14;102740.13;5088641;28;20056;-75
2022/03/22 01:15:18;;;;;;;44.10;22.88;;;;;;;9.16;92.67;102744.38;5087483;28;20532;-75
2022/03/22 01:17:46;;;;;;;39.17;21.88;;;;;;;9.12;91.84;102740.69;5085712;28;20089;-75
2022/03/22 01:20:13;;;;;;;43.67;22.38;;;;;;;9.10;91.71;102737.44;5087733;28;20056;-72
2022/03/22 01:22:42;;;;;;;44.85;22.73;;;;;;;9.07;91.21;102732.59;5081618;28;20114;-74
2022/03/22 01:25:13;;;;;;;38.35;21.77;;;;;;;9.06;92.18;102735.69;5076370;28;20133;-77
2022/03/22 01:27:42;;;;;;;41.20;22.10;;;;;;;9.02;92.33;102732.00;5089432;28;20836;-73
2022/03/22 01:30:12;;;;;;;39.85;22.80;;;;;;;8.96;92.99;102731.38;5088498;28;20476;-73
2022/03/22 01:32:39;;;;;;;42.75;21.55;;;;;;;8.91;93.48;102739.06;5090457;28;20096;-73
2022/03/22 01:35:08;;;;;;;40.20;20.88;;;;;;;8.92;92.84;102732.41;5094182;28;20468;-73
2022/03/22 01:37:35;;;;;;;41.20;21.02;;;;;;;8.84;93.15;102736.06;5087906;28;20101;-72
2022/03/22 01:40:04;;;;;;;40.55;20.17;;;;;;;8.82;92.02;102736.38;5081561;28;20091;-72
2022/03/22 01:42:31;;;;;;;36.78;19.70;;;;;;;8.72;92.14;102727.69;5096378;28;20052;-73
2022/03/22 01:44:57;;;;;;;36.88;19.60;;;;;;;8.69;93.14;102731.94;5092203;28;20040;-74
2022/03/22 01:47:24;;;;;;;40.72;21.20;;;;;;;8.68;92.39;102729.50;5087152;28;20050;-74
2022/03/22 01:49:52;;;;;;;38.03;21.25;;;;;;;8.64;92.88;102723.84;5087929;28;20512;-73
2022/03/22 01:52:22;;;;;;;44.38;21.52;;;;;;;8.55;91.92;102723.13;5091245;28;20052;-75
2022/03/22 01:54:50;;;;;;;41.58;20.50;;;;;;;8.49;92.81;102727.19;5086944;28;20168;-76
2022/03/22 01:57:20;;;;;;;38.67;20.48;;;;;;;8.47;93.63;102723.97;5089823;28;20047;-74
2022/03/22 01:59:48;;;;;;;38.80;21.48;;;;;;;8.48;93.99;102724.78;5086916;28;20040;-74
2022/03/22 02:07:48;;;;;;;42.20;21.45;;;;;;;8.41;95.04;102719.81;5083500;28;20101;-74
2022/03/22 02:10:15;;;;;;;40.92;21.48;;;;;;;8.40;95.64;102717.38;5093453;28;20102;-73
2022/03/22 02:12:44;;;;;;;39.35;21.02;;;;;;;8.37;95.58;102713.31;5085785;28;20097;-74
2022/03/22 02:15:12;;;;;;;39.75;21.23;;;;;;;8.30;94.66;102713.03;5088364;28;20070;-74
2022/03/22 02:17:45;;;;;;;42.65;21.00;;;;;;;8.27;95.32;102708.19;5086860;28;20059;-72
2022/03/22 02:20:15;;;;;;;40.10;20.80;;;;;;;8.26;95.15;102709.34;5086037;28;20055;-75
2022/03/22 02:22:53;;;;;;;40.40;20.48;;;;;;;8.24;95.20;102708.06;5085087;28;20052;-73
2022/03/22 02:25:20;;;;;;;43.40;20.90;;;;;;;8.21;95.27;102709.50;5087458;28;20068;-72
2022/03/22 02:27:53;;;;;;;40.25;20.27;;;;;;;8.20;95.43;102701.56;5086940;28;20169;-75
2022/03/22 02:30:21;;;;;;;38.72;20.48;;;;;;;8.16;95.64;102706.13;5087950;28;20513;-73
2022/03/22 02:32:59;;;;;;;38.83;20.20;;;;;;;8.15;94.15;102697.03;5085971;28;20084;-74
2022/03/22 02:35:26;;;;;;;37.78;20.17;;;;;;;8.15;94.93;102698.97;5087694;28;20079;-73
2022/03/22 02:37:52;;;;;;;39.05;19.63;;;;;;;8.08;94.32;102699.53;5086689;28;20083;-75
2022/03/22 02:40:19;;;;;;;38.17;19.85;;;;;;;8.03;94.54;102699.69;5086982;28;20087;-72
2022/03/22 02:42:53;;;;;;;37.58;20.38;;;;;;;8.00;95.57;102698.41;5087152;28;20068;-72
2022/03/22 02:45:24;;;;;;;38.47;20.43;;;;;;;7.99;94.82;102702.31;5086050;28;20458;-73
2022/03/22 02:47:50;;;;;;;42.83;20.17;;;;;;;7.98;95.05;102703.47;5088062;28;20286;-73
2022/03/22 02:50:18;;;;;;;43.60;22.70;;;;;;;7.98;95.06;102705.41;5087114;28;20508;-74
2022/03/22 02:52:47;;;;;;;38.75;20.92;;;;;;;7.98;96.10;102708.16;5084231;28;20052;-72
2022/03/22 02:55:14;;;;;;;38.75;20.27;;;;;;;7.90;95.35;102701.56;5088247;28;20093;-73
2022/03/22 02:57:43;;;;;;;36.03;20.13;;;;;;;7.90;94.96;102709.81;5089389;28;20496;-74
2022/03/22 03:00:11;;;;;;;43.45;20.50;;;;;;;7.88;94.98;102709.34;5087557;28;20109;-72
2022/03/22 03:02:46;;;;;;;40.40;20.88;;;;;;;7.87;96.10;102723.47;5087472;28;20082;-73
2022/03/22 03:05:13;;;;;;;35.47;19.33;;;;;;;7.84;95.49;102715.84;5086540;28;20056;-75
2022/03/22 03:07:39;;;;;;;44.42;20.55;;;;;;;7.83;95.16;102716.97;5089303;28;20079;-74
2022/03/22 03:10:07;;;;;;;37.50;19.92;;;;;;;7.81;95.12;102722.03;5086769;28;20084;-75
2022/03/22 03:12:34;;;;;;;41.25;20.27;;;;;;;7.79;94.74;102721.53;5086469;28;20052;-74
2022/03/22 03:15:02;;;;;;;40.08;20.23;;;;;;;7.75;95.60;102728.84;5085943;28;20044;-74
2022/03/22 03:17:29;;;;;;;38.85;19.27;;;;;;;7.73;95.85;102731.94;5086206;28;20063;-75
2022/03/22 03:19:56;;;;;;;38.97;20.98;;;;;;;7.70;95.66;102727.06;5087250;28;20059;-73
2022/03/22 03:22:23;;;;;;;40.20;19.48;;;;;;;7.60;95.52;102715.63;5086839;28;20048;-74
2022/03/22 03:24:50;;;;;;;38.80;20.20;;;;;;;7.66;95.19;102731.63;5085913;28;20052;-74
2022/03/22 03:27:17;;;;;;;38.83;19.08;;;;;;;7.60;95.73;102726.66;5087439;28;20064;-74
2022/03/22 03:29:44;;;;;;;37.95;20.25;;;;;;;7.54;95.41;102719.69;5084924;28;20420;-77
2022/03/22 03:32:10;;;;;;;39.13;19.88;;;;;;;7.54;95.56;102723.25;5082864;28;20052;-73
2022/03/22 03:34:37;;;;;;;38.10;18.98;;;;;;;7.55;95.72;102730.38;5090514;28;20083;-75
2022/03/22 03:37:04;;;;;;;38.28;19.08;;;;;;;7.53;96.21;102729.88;5084667;28;20133;-73
2022/03/22 03:39:31;;;;;;;40.70;20.00;;;;;;;7.48;95.61;102726.50;5089398;28;20487;-75
2022/03/22 03:41:58;;;;;;;39.58;20.10;;;;;;;7.44;96.31;102729.13;5090813;28;20102;-74
2022/03/22 03:47:16;;;;;;;37.30;19.08;;;;;;;7.42;95.71;102742.41;5090229;28;20076;-76
2022/03/22 03:49:54;;;;;;;31.77;16.95;;;;;;;7.39;95.08;102732.03;5090633;28;20089;-74
2022/03/22 03:52:23;;;;;;;36.40;17.13;;;;;;;7.40;95.41;102738.38;5090152;28;20066;-76
2022/03/22 03:54:50;;;;;;;37.83;17.48;;;;;;;7.34;95.81;102734.16;5090418;28;20048;-75
2022/03/22 03:57:17;;;;;;;34.45;17.55;;;;;;;7.31;95.37;102738.38;5092941;28;20513;-75
2022/03/22 03:59:45;;;;;;;36.92;18.70;;;;;;;7.29;96.70;102740.63;5089893;28;20123;-73
2022/03/22 04:02:12;;;;;;;32.10;17.92;;;;;;;7.26;97.05;102746.00;5089143;28;20050;-74
2022/03/22 04:04:40;;;;;;;34.13;18.25;;;;;;;7.24;96.83;102740.00;5089357;28;20069;-78
2022/03/22 04:07:09;;;;;;;39.47;18.15;;;;;;;7.24;97.74;102746.31;5090091;28;20055;-74
2022/03/22 04:09:38;;;;;;;36.05;17.02;;;;;;;7.25;96.05;102741.63;5077387;28;20125;-75
2022/03/22 04:12:05;;;;;;;36.45;18.48;;;;;;;7.22;95.78;102742.25;5089063;28;20131;-72
2022/03/22 04:14:33;;;;;;;37.60;18.50;;;;;;;7.21;96.64;102748.91;5090385;28;20073;-74
2022/03/22 04:16:59;;;;;;;36.92;19.02;;;;;;;7.15;97.44;102742.78;5090041;28;20075;-76
2022/03/22 04:19:26;;;;;;;36.47;19.00;;;;;;;7.13;96.84;102744.22;5088346;28;20118;-75
2022/03/22 04:21:53;;;;;;;37.35;19.15;;;;;;;7.13;97.10;102749.75;5089661;28;20062;-72
2022/03/22 04:24:37;;;;;;;34.55;19.00;;;;;;;7.13;97.37;102750.53;5089551;28;20043;-74
2022/03/22 04:32:52;;;;;;;;;;;;;;;7.04;97.20;102757.19;5081284;28;20135;-74
2022/03/22 04:35:20;;;;;;;37.13;18.30;;;;;;;7.02;96.96;102754.75;5089935;28;19924;-75
2022/03/22 04:37:49;;;;;;;40.35;19.95;;;;;;;6.98;97.23;102751.03;5089794;28;20508;-74
2022/03/22 04:40:16;;;;;;;37.17;19.35;;;;;;;6.90;96.64;102756.53;5088193;28;20052;-72
2022/03/22 04:42:43;;;;;;;36.20;18.85;;;;;;;6.88;97.18;102751.34;5089536;28;20054;-73
2022/03/22 04:45:10;;;;;;;41.75;18.80;;;;;;;6.88;97.19;102758.78;5089228;28;20087;-73
2022/03/22 04:47:36;;;;;;;38.00;18.50;;;;;;;6.88;97.04;102753.28;5089701;28;20423;-74
2022/03/22 04:50:05;;;;;;;36.20;18.35;;;;;;;6.85;96.68;102760.25;5090260;28;20171;-73
2022/03/22 04:58:03;;;;;;;34.90;16.85;;;;;;;6.79;97.68;102761.53;5092018;28;19931;-73
2022/03/22 05:00:34;;;;;;;36.00;17.73;;;;;;;6.76;96.75;102766.91;5088756;28;20059;-73
2022/03/22 05:03:02;;;;;;;36.95;18.48;;;;;;;6.73;96.09;102773.84;5088902;28;20127;-72
2022/03/22 05:08:14;;;;;;;37.30;18.98;;;;;;;6.68;96.35;102773.22;5080605;28;20044;-73
2022/03/22 05:10:41;;;;;;;38.42;18.05;;;;;;;6.63;95.65;102768.66;5088677;28;20143;-75
2022/03/22 05:13:08;;;;;;;37.72;17.73;;;;;;;6.61;95.48;102768.16;5088401;28;20354;-75
2022/03/22 05:15:34;;;;;;;35.92;19.35;;;;;;;6.59;95.85;102766.88;5089391;28;20261;-73
2022/03/22 05:18:01;;;;;;;32.75;17.20;;;;;;;6.57;96.44;102766.38;5088626;28;20485;-73
2022/03/22 05:20:28;;;;;;;37.53;18.83;;;;;;;6.56;96.71;102773.00;5088435;28;20044;-73
2022/03/22 05:22:55;;;;;;;35.95;18.02;;;;;;;6.57;96.31;102780.13;5088451;28;20048;-73
2022/03/22 05:25:21;;;;;;;33.05;17.90;;;;;;;6.55;96.59;102771.41;5089462;28;20044;-73
2022/03/22 05:27:48;;;;;;;41.33;18.67;;;;;;;6.56;96.05;102770.25;5089299;28;20063;-73
2022/03/22 05:30:14;;;;;;;43.72;20.42;;;;;;;6.51;96.22;102773.19;5089256;28;20139;-72
2022/03/22 05:32:41;;;;;;;40.45;19.50;;;;;;;6.51;96.02;102776.72;5088246;28;20501;-72
2022/03/22 05:35:08;;;;;;;39.60;19.25;;;;;;;6.47;96.15;102775.75;5088957;28;20048;-73
2022/03/22 05:37:35;;;;;;;40.30;19.23;;;;;;;6.48;96.08;102782.06;5088511;28;20469;-73
2022/03/22 05:40:03;;;;;;;39.50;20.02;;;;;;;6.44;96.24;102783.81;5088809;28;20468;-73
2022/03/22 05:42:29;;;;;;;39.72;19.70;;;;;;;6.41;96.35;102781.72;5087703;28;20756;-72
2022/03/22 05:44:56;;;;;;;34.70;17.67;;;;;;;6.41;95.77;102789.97;5088869;28;20491;-75
2022/03/22 05:47:23;;;;;;;35.47;19.23;;;;;;;6.39;95.60;102790.28;5088089;28;20142;-74
2022/03/22 05:49:49;;;;;;;41.60;20.70;;;;;;;6.39;95.74;102800.47;5089705;28;20145;-74
2022/03/22 05:52:16;;;;;;;36.95;19.80;;;;;;;6.37;96.25;102797.22;5087841;28;20135;-74
2022/03/22 05:54:42;;;;;;;38.35;19.08;;;;;;;6.37;95.80;102797.22;5088550;28;20143;-72
2022/03/22 05:57:10;;;;;;;39.50;19.55;;;;;;;6.35;95.65;102796.75;5091375;28;20048;-74
2022/03/22 05:59:36;;;;;;;42.08;20.38;;;;;;;6.38;95.84;102805.16;5088970;28;20071;-73
2022/03/22 06:02:04;;;;;;;38.35;19.25;;;;;;;6.38;95.45;102802.41;5087711;28;20042;-72
2022/03/22 06:04:31;;;;;;;37.42;19.08;;;;;;;6.42;96.39;102797.91;5088718;28;20043;-72
2022/03/22 06:06:58;;;;;;;38.40;19.40;;;;;;;6.36;96.19;102790.09;5086998;28;20162;-72
2022/03/22 06:09:25;;;;;;;38.03;19.13;;;;;;;6.43;95.80;102802.28;5087779;28;20056;-72
2022/03/22 06:11:51;;;;;;;42.15;19.35;;;;;;;6.47;95.43;102808.75;5088309;28;20048;-72
2022/03/22 06:14:18;;;;;;;38.60;18.20;;;;;;;6.52;95.40;102805.03;5086109;28;20508;-72
2022/03/22 06:16:44;;;;;;;36.95;19.75;;;;;;;6.57;94.87;102810.38;5087875;28;20056;-73
2022/03/22 06:19:11;;;;;;;42.20;20.23;;;;;;;6.60;94.83;102818.00;5087590;28;20047;-73
2022/03/22 06:21:38;;;;;;;42.42;19.95;;;;;;;6.65;94.84;102817.88;5086553;28;20109;-75
2022/03/22 06:24:05;;;;;;;41.65;22.65;;;;;;;6.67;94.93;102815.59;5087249;28;20044;-73
2022/03/22 06:26:31;;;;;;;42.72;19.67;;;;;;;6.75;94.71;102823.06;5088647;28;20135;-74
2022/03/22 06:29:00;;;;;;;39.33;18.77;;;;;;;6.81;94.39;102825.34;5087370;28;20052;-73
2022/03/22 06:31:27;;;;;;;39.72;20.05;;;;;;;6.84;94.34;102819.19;5087960;28;20542;-75
2022/03/22 06:33:54;;;;;;;36.67;18.10;;;;;;;6.95;94.11;102825.19;5088853;28;20062;-73
2022/03/22 06:36:21;;;;;;;35.63;19.95;;;;;;;6.99;93.64;102823.41;5089269;28;20460;-73
2022/03/22 06:38:47;;;;;;;42.85;21.30;;;;;;;7.05;93.54;102827.63;5088823;28;20056;-74
2022/03/22 06:41:14;;;;;;;44.05;18.98;;;;;;;7.12;93.44;102827.97;5088754;28;20143;-73
2022/03/22 06:43:40;;;;;;;45.22;20.45;;;;;;;7.18;93.05;102829.41;5089643;28;20094;-72
2022/03/22 06:46:07;;;;;;;38.75;19.90;;;;;;;7.22;92.74;102824.88;5087947;28;20047;-74
2022/03/22 06:48:34;;;;;;;39.95;19.80;;;;;;;7.28;92.85;102835.41;5088374;28;20431;-72
2022/03/22 06:51:00;;;;;;;42.90;21.13;;;;;;;7.35;93.30;102843.19;5085854;28;20566;-72
2022/03/22 06:53:27;;;;;;;38.60;19.40;;;;;;;7.42;92.97;102840.75;5085323;28;20036;-74
2022/03/22 06:55:55;;;;;;;42.85;20.27;;;;;;;7.49;92.88;102839.13;5084997;28;20059;-75
2022/03/22 06:58:24;;;;;;;43.97;21.27;;;;;;;7.56;92.37;102838.66;5089995;28;20050;-74
2022/03/22 07:00:52;;;;;;;44.53;21.80;;;;;;;7.69;92.02;102843.97;5085347;28;20056;-74
2022/03/22 07:03:18;;;;;;;40.60;21.80;;;;;;;7.76;92.10;102840.69;5087357;28;20056;-76
2022/03/22 07:05:45;;;;;;;53.30;21.77;;;;;;;7.85;92.10;102845.06;5086128;28;20523;-74
2022/03/22 07:08:13;;;;;;;37.10;21.13;;;;;;;7.96;92.34;102849.09;5091306;28;20052;-75
2022/03/22 07:10:40;;;;;;;46.00;23.23;;;;;;;8.04;91.74;102844.72;5090302;28;20484;-75
2022/03/22 07:13:10;;;;;;;46.38;22.90;;;;;;;8.15;91.43;102840.44;5090589;28;20122;-76
2022/03/22 07:15:37;;;;;;;45.45;21.45;;;;;;;8.27;91.02;102843.34;5091727;28;20583;-74
2022/03/22 07:18:07;;;;;;;45.03;24.48;;;;;;;8.38;91.03;102844.59;5090634;28;20516;-75
2022/03/22 07:20:34;;;;;;;46.13;23.98;;;;;;;8.52;90.46;102841.59;5088200;28;20052;-74
2022/03/22 07:23:02;;;;;;;45.40;23.38;;;;;;;8.65;90.31;102846.91;5082624;28;20075;-75
2022/03/22 07:25:29;;;;;;;50.53;24.98;;;;;;;8.76;89.64;102839.84;5089775;28;20082;-76
2022/03/22 07:27:56;;;;;;;52.38;24.80;;;;;;;8.89;89.32;102840.75;5089124;28;20048;-75
2022/03/22 07:30:23;;;;;;;47.53;25.23;;;;;;;9.02;88.53;102839.69;5095588;28;20407;-76
2022/03/22 07:32:49;;;;;;;47.35;24.88;;;;;;;9.18;87.55;102847.03;5089023;28;20090;-74
2022/03/22 07:35:19;;;;;;;46.33;24.98;;;;;;;9.32;86.92;102846.78;5089877;28;20484;-74
2022/03/22 07:37:48;;;;;;;51.40;25.23;;;;;;;9.46;86.02;102853.63;5090478;28;20146;-74
2022/03/22 07:40:16;;;;;;;53.90;25.30;;;;;;;9.59;85.23;102846.22;5088539;28;20482;-72
2022/03/22 07:42:43;;;;;;;50.08;25.65;;;;;;;9.76;84.81;102849.59;5089487;28;20054;-72
2022/03/22 07:45:11;;;;;;;47.17;22.77;;;;;;;9.92;83.99;102845.03;5084067;28;20044;-73
2022/03/22 07:47:38;;;;;;;42.97;22.73;;;;;;;10.07;82.70;102838.91;5089563;28;20131;-73
2022/03/22 07:53:05;;;;;;;;;;;;;;;10.41;79.32;102846.78;5089886;28;20078;-72
2022/03/22 07:55:40;;;;;;;44.70;22.48;;;;;;;10.60;77.73;102853.69;5090534;28;20039;-73
2022/03/22 07:58:08;;;;;;;41.00;21.13;;;;;;;10.78;76.19;102855.06;5091358;28;20064;-71
2022/03/22 08:00:39;;;;;;;38.10;21.17;;;;;;;10.97;75.55;102858.06;5090105;28;20068;-73
2022/03/22 08:03:15;;;;;;;41.05;22.67;;;;;;;11.14;74.62;102855.03;5090501;28;20052;-74
2022/03/22 08:05:46;;;;;;;41.03;23.10;;;;;;;11.35;75.28;102863.97;5086236;28;20117;-71
2022/03/22 08:08:12;;;;;;;40.03;19.48;;;;;;;11.54;72.54;102864.94;5089485;28;20050;-69
2022/03/22 08:10:58;;;;;;;32.92;17.52;;;;;;;11.73;66.71;102864.31;5089679;28;20627;-75
2022/03/22 08:13:24;;;;;;;37.97;18.92;;;;;;;11.89;63.05;102862.41;5088387;28;20064;-75
2022/03/22 08:15:51;;;;;;;37.42;17.35;;;;;;;12.07;61.72;102863.69;5088502;28;20076;-73
2022/03/22 08:18:17;;;;;;;33.45;17.65;;;;;;;12.17;59.60;102863.16;5086918;28;20169;-77
2022/03/22 08:20:44;;;;;;;29.73;15.90;;;;;;;12.31;56.98;102867.09;5088196;28;20056;-74
2022/03/22 08:23:11;;;;;;;32.50;16.67;;;;;;;12.44;57.01;102867.81;5083121;28;20123;-75
2022/03/22 08:25:41;;;;;;;29.45;15.18;;;;;;;12.58;55.33;102862.63;5089909;28;20053;-75
2022/03/22 08:28:09;;;;;;;39.17;18.27;;;;;;;12.69;55.10;102860.94;5084019;28;20130;-74
2022/03/22 08:30:37;;;;;;;34.25;16.23;;;;;;;12.81;54.33;102860.81;5078820;28;20144;-75
2022/03/22 08:33:09;;;;;;;36.75;18.20;;;;;;;12.94;54.02;102863.13;5084711;28;20044;-76
2022/03/22 08:35:39;;;;;;;34.58;17.30;;;;;;;13.04;54.69;102857.00;5083982;28;20051;-74
2022/03/22 08:38:05;;;;;;;32.08;17.05;;;;;;;13.21;52.83;102857.78;5087716;28;20055;-75
2022/03/22 08:40:32;;;;;;;35.13;16.40;;;;;;;13.33;52.75;102858.44;5088119;28;20102;-77
2022/03/22 08:42:58;;;;;;;31.35;17.63;;;;;;;13.44;52.77;102853.13;5089057;28;20051;-75
2022/03/22 08:45:27;;;;;;;34.28;17.05;;;;;;;13.57;52.35;102854.59;5088172;28;20076;-75
2022/03/22 08:47:55;;;;;;;35.00;17.70;;;;;;;13.68;51.43;102855.59;5088291;28;20051;-74
2022/03/22 08:50:25;;;;;;;32.60;15.98;;;;;;;13.80;51.24;102852.66;5086316;28;20067;-77
2022/03/22 08:52:56;;;;;;;34.13;17.88;;;;;;;13.95;49.96;102851.75;5088498;28;20054;-78
2022/03/22 08:55:23;;;;;;;31.02;16.13;;;;;;;14.07;49.78;102857.94;5096088;28;20051;-73
2022/03/22 08:57:50;;;;;;;33.42;16.13;;;;;;;14.20;49.10;102848.25;5087759;28;20130;-76
2022/03/22 09:00:19;;;;;;;33.42;16.55;;;;;;;14.35;48.52;102847.34;5076356;28;20043;-73
2022/03/22 09:02:48;;;;;;;34.17;16.98;;;;;;;14.46;46.69;102851.13;5079239;28;20542;-77
2022/03/22 09:08:05;;;;;;;30.27;15.27;;;;;;;14.76;47.00;102843.66;5085065;28;20048;-73
2022/03/22 09:10:34;;;;;;;28.75;14.23;;;;;;;14.88;46.08;102848.19;5087002;28;20493;-75
2022/03/22 09:13:01;;;;;;;32.03;15.82;;;;;;;15.03;46.05;102853.63;5083186;28;20123;-73
2022/03/22 09:15:29;;;;;;;32.40;16.08;;;;;;;15.16;46.20;102851.41;5087171;28;20048;-72
2022/03/22 09:17:57;;;;;;;32.80;17.77;;;;;;;15.25;43.40;102849.94;5084970;28;20126;-71
2022/03/22 09:20:25;;;;;;;26.20;14.93;;;;;;;15.36;42.88;102848.13;5083066;28;20048;-77
2022/03/22 09:22:53;;;;;;;29.30;15.45;;;;;;;15.52;43.07;102847.13;5088962;28;20044;-76
2022/03/22 09:25:21;;;;;;;32.55;16.15;;;;;;;15.66;43.28;102842.50;5084560;28;20457;-76
2022/03/22 09:27:48;;;;;;;32.70;15.65;;;;;;;15.78;39.90;102842.25;5082202;28;20510;-77
2022/03/22 09:30:16;;;;;;;35.25;16.73;;;;;;;15.91;41.16;102843.59;5084198;28;20044;-77
2022/03/22 09:32:42;;;;;;;33.13;17.70;;;;;;;16.07;41.76;102840.56;5083688;28;20143;-76
2022/03/22 09:35:10;;;;;;;26.65;16.25;;;;;;;16.24;41.58;102839.94;5087341;28;20055;-78
2022/03/22 09:37:38;;;;;;;31.55;17.00;;;;;;;16.38;41.37;102829.69;5087956;28;20083;-78
2022/03/22 09:40:06;;;;;;;33.28;16.63;;;;;;;16.47;40.69;102832.19;5085346;28;20142;-75
2022/03/22 09:42:32;;;;;;;29.95;16.70;;;;;;;16.59;41.54;102829.06;5086457;28;20044;-75
2022/03/22 09:45:02;;;;;;;32.58;16.30;;;;;;;16.79;41.00;102822.84;5085966;28;20046;-75
2022/03/22 09:47:29;;;;;;;28.45;16.50;;;;;;;17.00;39.84;102825.75;5086047;28;20084;-75
2022/03/22 09:49:56;;;;;;;26.90;14.75;;;;;;;17.21;41.12;102820.28;5087570;28;20054;-74
2022/03/22 09:52:23;;;;;;;32.58;15.18;;;;;;;17.39;39.21;102823.16;5087487;28;20101;-73
2022/03/22 09:54:50;;;;;;;33.60;18.05;;;;;;;17.51;37.93;102825.63;5076000;28;20134;-74
2022/03/22 09:57:16;;;;;;;30.02;15.75;;;;;;;17.66;38.30;102814.09;5089453;28;20093;-75
2022/03/22 09:59:43;;;;;;;31.83;16.35;;;;;;;17.72;37.59;102817.31;5096595;28;20059;-75
2022/03/22 10:02:10;;;;;;;28.73;16.15;;;;;;;17.89;37.90;102814.53;5085318;28;20043;-76
2022/03/22 10:04:43;;;;;;;30.80;15.75;;;;;;;18.12;37.44;102816.19;5084079;28;20047;-76
2022/03/22 10:07:20;;;;;;;29.50;16.00;;;;;;;18.26;35.65;102814.19;5088891;28;20133;-75
2022/03/22 10:09:58;;;;;;;30.52;17.05;;;;;;;18.41;36.15;102799.00;5082039;28;20047;-72
2022/03/22 10:12:41;;;;;;;27.55;16.85;;;;;;;18.65;37.49;102803.78;5079885;28;20048;-70
2022/03/22 10:15:11;;;;;;;31.27;17.25;;;;;;;18.77;36.90;102803.38;5080977;28;20040;-74
2022/03/22 10:17:40;;;;;;;28.40;17.65;;;;;;;18.80;36.45;102791.31;5082081;28;20137;-72
2022/03/22 10:20:09;;;;;;;34.70;17.13;;;;;;;18.91;37.11;102797.75;5083114;28;20043;-73
2022/03/22 10:22:38;;;;;;;31.10;17.45;;;;;;;18.99;36.79;102788.09;5083594;28;20052;-72
2022/03/22 10:25:07;;;;;;;28.08;15.43;;;;;;;19.16;36.62;102794.84;5084752;28;20084;-77
2022/03/22 10:27:36;;;;;;;21.88;11.02;;;;;;;19.23;35.27;102792.81;5082825;28;20059;-77
2022/03/22 10:30:23;;;;;;;30.67;15.68;;;;;;;19.33;35.39;102783.56;5064593;28;20056;-77
2022/03/22 10:32:53;;;;;;;27.25;14.43;;;;;;;19.43;35.37;102785.53;5071009;28;20170;-78
2022/03/22 10:35:33;;;;;;;24.98;11.43;;;;;;;19.49;33.24;102791.50;5068261;28;20052;-77
2022/03/22 10:38:06;;;;;;;29.02;14.93;;;;;;;19.64;33.84;102788.22;5066674;28;20595;-77
2022/03/22 10:40:36;;;;;;;30.33;17.17;;;;;;;19.66;34.17;102791.44;5070518;28;20139;-77
2022/03/22 10:43:25;;;;;;;30.92;15.88;;;;;;;19.77;33.31;102783.72;5070663;28;20047;-77
2022/03/22 10:46:00;;;;;;;35.17;17.85;;;;;;;19.92;33.82;102782.41;5070997;28;20040;-79
2022/03/22 10:48:27;;;;;;;29.63;16.85;;;;;;;20.07;34.31;102786.72;5074666;28;20794;-75
2022/03/22 10:50:58;;;;;;;29.60;15.05;;;;;;;20.17;34.16;102782.25;5088748;28;20056;-76
2022/03/22 10:53:26;;;;;;;27.92;16.10;;;;;;;20.28;34.04;102780.16;5088697;28;20051;-75
2022/03/22 10:55:58;;;;;;;27.15;15.85;;;;;;;20.45;33.18;102773.56;5082535;28;20044;-75
2022/03/22 10:58:29;;;;;;;30.00;16.08;;;;;;;20.63;31.81;102773.41;5086411;28;20055;-75
2022/03/22 11:00:59;;;;;;;31.73;15.05;;;;;;;20.81;32.32;102768.38;5090831;28;20049;-80
2022/03/22 11:03:30;;;;;;;27.63;14.13;;;;;;;20.96;32.09;102765.03;5085726;28;20077;-75
2022/03/22 11:06:02;;;;;;;32.85;15.65;;;;;;;21.14;32.62;102770.44;5090963;28;20064;-75
2022/03/22 11:08:29;;;;;;;26.48;13.25;;;;;;;21.14;31.53;102759.19;5085736;28;20060;-77
2022/03/22 11:10:56;;;;;;;29.90;14.30;;;;;;;21.18;31.53;102766.38;5087984;28;20138;-77
2022/03/22 11:13:24;;;;;;;26.90;14.52;;;;;;;21.32;31.53;102768.19;5093351;28;20097;-74
2022/03/22 11:15:52;;;;;;;24.95;12.98;;;;;;;21.48;31.75;102757.94;5097783;28;20131;-75
2022/03/22 11:18:20;;;;;;;29.52;14.43;;;;;;;21.57;30.17;102758.19;5085390;28;20043;-75
2022/03/22 11:20:58;;;;;;;22.02;13.07;;;;;;;21.73;29.44;102757.59;5083394;28;20136;-78
2022/03/22 11:23:27;;;;;;;26.50;13.65;;;;;;;21.85;30.16;102749.34;5089196;28;20059;-77
2022/03/22 11:25:55;;;;;;;28.73;14.77;;;;;;;22.01;30.44;102752.31;5090448;28;20124;-74
2022/03/22 11:28:23;;;;;;;24.45;13.70;;;;;;;22.14;29.77;102750.47;5096136;28;20148;-78
2022/03/22 11:30:52;;;;;;;25.33;11.75;;;;;;;22.18;28.53;102748.38;5093605;28;20054;-74
2022/03/22 11:36:18;;;;;;;26.77;14.27;;;;;;;22.58;28.06;102750.13;5094131;28;20242;-79
2022/03/22 11:38:50;;;;;;;27.90;14.48;;;;;;;22.77;28.63;102740.09;5087390;28;20516;-73
2022/03/22 11:44:27;;;;;;;26.10;14.45;;;;;;;23.16;27.76;102740.09;5082455;28;20805;-73
2022/03/22 11:47:11;;;;;;;30.15;14.75;;;;;;;23.25;26.49;102740.31;5085115;28;20140;-77
2022/03/22 11:49:52;;;;;;;25.77;12.80;;;;;;;23.37;26.85;102736.81;5089108;28;20048;-75
2022/03/22 11:52:24;;;;;;;28.20;11.52;;;;;;;23.38;25.82;102738.41;5089147;28;20056;-75
2022/03/22 11:54:59;;;;;;;27.27;11.63;;;;;;;23.33;26.50;102729.66;5088763;28;20083;-74